createdAt,value
2019-04-11T00:01:19.827Z,5.25
2019-04-11T00:03:51.451Z,6.53
2019-04-11T00:06:41.674Z,5.27
2019-04-11T00:09:16.689Z,4.22
2019-04-11T00:11:48.269Z,3.70
2019-04-11T00:14:20.013Z,5.27
2019-04-11T00:16:51.051Z,5.60
2019-04-11T00:19:23.147Z,4.77
2019-04-11T00:21:55.502Z,4.37
2019-04-11T00:24:27.128Z,7.12
2019-04-11T00:26:58.469Z,5.37
2019-04-11T00:29:30.284Z,3.70
2019-04-11T00:32:01.367Z,4.60
2019-04-11T00:34:33.119Z,7.37
2019-04-11T00:37:05.138Z,3.50
2019-04-11T00:39:37.559Z,4.62
2019-04-11T00:42:08.938Z,6.85
2019-04-11T00:44:41.156Z,3.58
2019-04-11T00:47:13.088Z,5.50
2019-04-11T00:49:44.132Z,5.47
2019-04-11T00:52:16.241Z,3.35
2019-04-11T00:54:47.327Z,3.97
2019-04-11T00:57:18.958Z,5.63
2019-04-11T00:59:50.912Z,3.42
2019-04-11T01:02:23.150Z,2.55
2019-04-11T01:04:54.251Z,5.83
2019-04-11T01:07:25.426Z,3.27
2019-04-11T01:09:56.878Z,3.33
2019-04-11T01:12:28.917Z,4.45
2019-04-11T01:14:59.972Z,5.53
2019-04-11T01:17:31.588Z,6.37
2019-04-11T01:20:02.928Z,2.63
2019-04-11T01:22:34.276Z,4.20
2019-04-11T01:25:06.312Z,5.10
2019-04-11T01:27:39.344Z,3.53
2019-04-11T01:30:13.795Z,3.30
2019-04-11T01:32:44.999Z,4.80
2019-04-11T01:35:17.194Z,3.70
2019-04-11T01:37:48.317Z,4.25
2019-04-11T01:40:19.964Z,2.53
2019-04-11T01:42:51.342Z,6.33
2019-04-11T01:45:25.340Z,3.93
2019-04-11T01:48:05.587Z,6.30
2019-04-11T01:50:37.409Z,6.53
2019-04-11T01:53:09.275Z,3.95
2019-04-11T01:55:40.840Z,4.03
2019-04-11T01:58:11.973Z,5.07
2019-04-11T02:01:01.968Z,3.07
2019-04-11T02:03:41.406Z,4.70
2019-04-11T02:06:13.821Z,3.83
2019-04-11T02:08:44.840Z,3.27
2019-04-11T02:11:17.128Z,3.53
2019-04-11T02:13:48.263Z,4.42
2019-04-11T02:16:19.376Z,2.42
2019-04-11T02:18:50.342Z,5.37
2019-04-11T02:21:21.906Z,5.13
2019-04-11T02:23:59.431Z,3.27
2019-04-11T02:26:33.579Z,5.63
2019-04-11T02:29:05.547Z,4.13
2019-04-11T02:31:38.872Z,3.17
2019-04-11T02:34:11.471Z,2.93
2019-04-11T02:36:43.049Z,2.43
2019-04-11T02:39:19.257Z,2.30
2019-04-11T02:41:50.623Z,4.17
2019-04-11T02:44:39.591Z,3.87
2019-04-11T02:47:01.818Z,4.50
2019-04-11T02:49:27.937Z,2.73
2019-04-11T02:52:00.833Z,3.87
2019-04-11T02:54:33.809Z,4.30
2019-04-11T02:57:05.779Z,2.55
2019-04-11T02:59:38.907Z,3.75
2019-04-11T03:02:13.101Z,3.17
2019-04-11T03:04:43.934Z,4.97
2019-04-11T03:07:16.563Z,3.13
2019-04-11T03:09:48.819Z,4.93
2019-04-11T03:12:21.681Z,4.80
2019-04-11T03:15:09.311Z,3.13
2019-04-11T03:17:32.900Z,3.33
2019-04-11T03:20:10.464Z,4.10
2019-04-11T03:22:32.289Z,2.80
2019-04-11T03:25:06.053Z,4.80
2019-04-11T03:27:38.471Z,3.20
2019-04-11T03:30:15.129Z,3.47
2019-04-11T03:38:17.364Z,2.83
2019-04-11T03:40:43.212Z,4.10
2019-04-11T03:43:09.369Z,4.40
2019-04-11T03:45:51.381Z,4.30
2019-04-11T03:48:20.467Z,4.87
2019-04-11T03:50:37.129Z,4.83
2019-04-11T03:53:10.944Z,3.83
2019-04-11T03:55:43.236Z,4.23
2019-04-11T03:58:15.400Z,4.95
2019-04-11T04:00:49.613Z,3.40
2019-04-11T04:03:20.289Z,1.90
2019-04-11T04:05:52.839Z,5.23
2019-04-11T04:08:25.193Z,3.30
2019-04-11T04:11:22.251Z,2.55
2019-04-11T04:14:12.641Z,2.55
2019-04-11T04:17:03.831Z,4.25
2019-04-11T04:19:47.612Z,9.63
2019-04-11T04:22:29.257Z,2.83
2019-04-11T04:25:03.775Z,6.47
2019-04-11T04:27:35.318Z,2.77
2019-04-11T04:30:08.595Z,2.47
2019-04-11T04:32:40.612Z,2.37
2019-04-11T04:35:16.806Z,4.65
2019-04-11T04:37:45.395Z,4.80
2019-04-11T04:40:31.421Z,4.37
2019-04-11T04:42:55.307Z,5.12
2019-04-11T04:45:24.337Z,6.07
2019-04-11T04:48:02.577Z,4.33
2019-04-11T04:50:28.683Z,3.20
2019-04-11T04:53:02.580Z,2.70
2019-04-11T04:55:34.630Z,5.20
2019-04-11T04:58:07.240Z,2.93
2019-04-11T05:00:40.283Z,8.58
2019-04-11T05:03:11.399Z,4.73
2019-04-11T05:05:44.257Z,4.73
2019-04-11T05:08:16.539Z,4.00
2019-04-11T05:10:49.056Z,3.98
2019-04-11T05:13:21.686Z,5.63
2019-04-11T05:16:04.458Z,3.20
2019-04-11T05:18:25.904Z,2.70
2019-04-11T05:20:58.724Z,5.63
2019-04-11T05:23:29.939Z,4.20
2019-04-11T05:26:01.656Z,3.57
2019-04-11T05:28:32.678Z,7.05
2019-04-11T05:31:03.728Z,4.25
2019-04-11T05:33:35.060Z,5.05
2019-04-11T05:36:06.109Z,3.83
2019-04-11T05:38:38.305Z,4.08
2019-04-11T05:41:12.267Z,4.67
2019-04-11T05:43:43.369Z,3.77
2019-04-11T05:46:26.407Z,3.83
2019-04-11T05:49:02.288Z,3.50
2019-04-11T05:51:42.615Z,2.87
2019-04-11T05:54:08.029Z,3.70
2019-04-11T05:56:41.432Z,3.77
2019-04-11T05:59:19.799Z,6.07
2019-04-11T06:02:03.245Z,4.73
2019-04-11T06:04:38.034Z,3.63
2019-04-11T06:07:25.335Z,3.85
2019-04-11T06:10:00.733Z,3.67
2019-04-11T06:12:50.600Z,3.67
2019-04-11T06:15:27.028Z,3.77
2019-04-11T06:17:58.677Z,3.67
2019-04-11T06:20:57.899Z,4.00
2019-04-11T06:23:47.637Z,3.97
2019-04-11T06:26:41.409Z,3.23
2019-04-11T06:29:31.603Z,4.67
2019-04-11T06:32:30.366Z,3.30
2019-04-11T06:35:06.168Z,5.70
2019-04-11T06:37:58.295Z,7.75
2019-04-11T06:40:37.703Z,4.37
2019-04-11T06:43:29.352Z,5.50
2019-04-11T06:46:18.793Z,3.37
2019-04-11T06:48:58.196Z,4.10
2019-04-11T06:51:37.818Z,4.80
2019-04-11T06:54:16.922Z,4.87
2019-04-11T06:56:51.036Z,6.30
2019-04-11T06:59:33.080Z,7.37
2019-04-11T07:02:16.483Z,6.53
2019-04-11T07:05:02.542Z,4.20
2019-04-11T07:07:35.982Z,3.60
2019-04-11T07:10:09.533Z,3.10
2019-04-11T07:12:43.821Z,4.87
2019-04-11T07:15:29.399Z,5.40
2019-04-11T07:18:18.354Z,4.77
2019-04-11T07:21:03.745Z,5.77
2019-04-11T07:23:53.405Z,4.47
2019-04-11T07:26:43.824Z,6.27
2019-04-11T07:29:40.116Z,4.08
2019-04-11T07:32:20.050Z,3.83
2019-04-11T07:35:08.807Z,5.83
2019-04-11T07:37:41.237Z,5.97
2019-04-11T07:40:33.318Z,6.70
2019-04-11T07:43:25.297Z,4.63
2019-04-11T07:46:14.977Z,4.60
2019-04-11T07:48:46.907Z,3.92
2019-04-11T07:51:36.422Z,5.90
2019-04-11T07:54:10.183Z,4.73
2019-04-11T07:57:04.189Z,4.60
2019-04-11T07:59:55.571Z,4.70
2019-04-11T08:02:49.044Z,4.53
2019-04-11T08:05:41.080Z,5.40
2019-04-11T08:08:34.592Z,7.75
2019-04-11T08:11:13.885Z,7.53
2019-04-11T08:13:58.591Z,4.03
2019-04-11T08:17:03.899Z,6.83
2019-04-11T08:20:05.006Z,3.90
2019-04-11T08:22:39.175Z,5.63
2019-04-11T08:25:25.265Z,7.57
2019-04-11T08:28:02.235Z,5.83
2019-04-11T08:31:13.167Z,5.93
2019-04-11T08:33:44.704Z,6.75
2019-04-11T08:36:33.764Z,4.83
2019-04-11T08:39:11.208Z,5.77
2019-04-11T08:42:01.063Z,4.87
2019-04-11T08:44:39.567Z,6.53
2019-04-11T08:47:20.401Z,6.23
2019-04-11T08:49:54.152Z,5.57
2019-04-11T08:52:40.377Z,4.13
2019-04-11T08:55:17.246Z,7.00
2019-04-11T08:57:58.853Z,7.40
2019-04-11T09:00:38.067Z,7.53
2019-04-11T09:03:35.702Z,4.87
2019-04-11T09:06:09.328Z,5.73
2019-04-11T09:08:59.706Z,5.40
2019-04-11T09:11:47.044Z,5.77
2019-04-11T09:14:36.003Z,7.33
2019-04-11T09:17:30.220Z,6.17
2019-04-11T09:20:21.404Z,9.08
2019-04-11T09:23:03.825Z,7.93
2019-04-11T09:25:53.250Z,7.33
2019-04-11T09:28:33.432Z,8.00
2019-04-11T09:31:42.119Z,5.40
2019-04-11T09:34:39.741Z,8.88
2019-04-11T09:37:36.076Z,7.23
2019-04-11T09:40:34.441Z,8.27
2019-04-11T09:43:13.071Z,7.53
2019-04-11T09:45:56.198Z,9.60
2019-04-11T09:48:44.546Z,8.23
2019-04-11T09:51:29.480Z,5.90
2019-04-11T09:54:08.696Z,8.27
2019-04-11T09:57:00.224Z,6.57
2019-04-11T09:59:42.799Z,4.17
2019-04-11T10:02:38.166Z,7.90
2019-04-11T10:05:11.677Z,4.63
2019-04-11T10:08:02.173Z,8.30
2019-04-11T10:10:53.275Z,6.90
2019-04-11T10:13:42.778Z,5.93
2019-04-11T10:16:31.810Z,7.63
2019-04-11T10:19:24.807Z,6.33
2019-04-11T10:22:04.853Z,6.77
2019-04-11T10:24:54.764Z,6.93
2019-04-11T10:27:36.419Z,6.33
2019-04-11T10:30:39.916Z,6.73
2019-04-11T10:33:24.732Z,8.83
2019-04-11T10:36:14.659Z,7.97
2019-04-11T10:38:46.809Z,7.80
2019-04-11T10:41:30.655Z,9.43
2019-04-11T10:44:02.428Z,7.27
2019-04-11T10:46:52.719Z,8.80
2019-04-11T10:49:48.903Z,9.33
2019-04-11T10:52:28.907Z,9.20
2019-04-11T10:55:06.109Z,8.23
2019-04-11T10:57:42.435Z,6.80
2019-04-11T11:00:39.643Z,6.40
2019-04-11T11:03:18.203Z,5.77
2019-04-11T11:05:51.988Z,7.37
2019-04-11T11:08:37.711Z,7.17
2019-04-11T11:11:17.540Z,8.27
2019-04-11T11:14:02.755Z,9.60
2019-04-11T11:16:42.870Z,10.30
2019-04-11T11:19:45.765Z,8.23
2019-04-11T11:22:23.637Z,10.60
2019-04-11T11:25:24.894Z,8.57
2019-04-11T11:27:56.356Z,8.63
2019-04-11T11:30:44.694Z,7.05
2019-04-11T11:33:18.158Z,8.98
2019-04-11T11:36:17.763Z,9.37
2019-04-11T11:39:07.008Z,7.00
2019-04-11T11:42:02.073Z,9.05
2019-04-11T11:44:39.760Z,8.40
2019-04-11T11:47:33.047Z,6.40
2019-04-11T11:50:04.422Z,8.47
2019-04-11T11:52:54.189Z,9.50
2019-04-11T11:55:29.465Z,8.20
2019-04-11T11:58:19.871Z,8.40
2019-04-11T12:00:53.873Z,6.80
2019-04-11T12:04:03.431Z,7.17
2019-04-11T12:06:35.456Z,5.80
2019-04-11T12:09:39.413Z,7.17
2019-04-11T12:12:15.746Z,6.67
2019-04-11T12:15:06.187Z,8.33
2019-04-11T12:18:18.075Z,7.97
2019-04-11T12:20:56.310Z,8.27
2019-04-11T12:23:49.544Z,6.33
2019-04-11T12:26:14.212Z,7.43
2019-04-11T12:29:03.976Z,9.67
2019-04-11T12:31:37.135Z,9.00
2019-04-11T12:34:26.107Z,4.63
2019-04-11T12:36:58.533Z,8.17
2019-04-11T12:39:48.490Z,8.93
2019-04-11T12:42:22.739Z,9.73
2019-04-11T12:45:15.697Z,7.63
2019-04-11T12:47:55.630Z,7.17
2019-04-11T12:50:44.707Z,8.70
2019-04-11T12:53:26.636Z,6.95
2019-04-11T12:56:17.342Z,6.60
2019-04-11T12:58:50.780Z,8.07
2019-04-11T13:01:39.429Z,7.83
2019-04-11T13:04:25.774Z,8.35
2019-04-11T13:07:34.059Z,5.90
2019-04-11T13:10:24.547Z,8.90
2019-04-11T13:13:20.701Z,8.20
2019-04-11T13:16:12.188Z,7.10
2019-04-11T13:19:02.869Z,5.78
2019-04-11T13:21:44.462Z,7.65
2019-04-11T13:24:33.354Z,8.25
2019-04-11T13:27:32.808Z,9.67
2019-04-11T13:30:23.698Z,8.23
2019-04-11T13:32:58.599Z,8.67
2019-04-11T13:36:03.556Z,9.57
2019-04-11T13:38:51.673Z,7.87
2019-04-11T13:41:42.340Z,9.57
2019-04-11T13:44:31.036Z,7.67
2019-04-11T13:47:34.058Z,6.55
2019-04-11T13:50:16.270Z,9.50
2019-04-11T13:52:57.299Z,5.97
2019-04-11T13:55:35.314Z,5.63
2019-04-11T13:58:34.487Z,6.97
2019-04-11T14:01:11.979Z,6.07
2019-04-11T14:04:01.965Z,7.83
2019-04-11T14:06:34.196Z,7.00
2019-04-11T14:09:37.800Z,7.00
2019-04-11T14:12:14.393Z,7.20
2019-04-11T14:15:11.701Z,7.95
2019-04-11T14:18:05.106Z,8.60
2019-04-11T14:20:42.061Z,7.07
2019-04-11T14:23:34.631Z,7.10
2019-04-11T14:26:24.440Z,10.30
2019-04-11T14:28:59.677Z,6.77
2019-04-11T14:31:53.822Z,6.07
2019-04-11T14:34:47.610Z,4.80
2019-04-11T14:37:46.190Z,5.80
2019-04-11T14:41:01.454Z,8.25
2019-04-11T14:43:29.818Z,5.60
2019-04-11T14:46:22.916Z,6.77
2019-04-11T14:49:05.724Z,8.55
2019-04-11T14:51:59.042Z,6.40
2019-04-11T14:54:50.354Z,5.37
2019-04-11T14:57:55.664Z,6.47
2019-04-11T15:00:30.545Z,6.67
2019-04-11T15:03:32.930Z,7.00
2019-04-11T15:06:18.663Z,7.17
2019-04-11T15:09:03.990Z,7.83
2019-04-11T15:11:57.204Z,5.10
2019-04-11T15:14:59.887Z,6.50
2019-04-11T15:17:33.453Z,8.50
2019-04-11T15:20:37.476Z,7.83
2019-04-11T15:23:12.256Z,6.50
2019-04-11T15:26:09.808Z,7.83
2019-04-11T15:28:59.046Z,6.92
2019-04-11T15:31:39.456Z,6.33
2019-04-11T15:34:19.876Z,8.70
2019-04-11T15:37:16.060Z,6.53
2019-04-11T15:40:24.396Z,6.93
2019-04-11T15:43:24.491Z,6.87
2019-04-11T15:46:01.417Z,7.57
2019-04-11T15:49:00.372Z,6.70
2019-04-11T15:51:37.295Z,6.95
2019-04-11T15:54:28.293Z,7.50
2019-04-11T15:57:12.641Z,9.45
2019-04-11T16:00:07.402Z,8.27
2019-04-11T16:03:00.130Z,7.33
2019-04-11T16:05:50.249Z,5.90
2019-04-11T16:08:43.922Z,8.00
2019-04-11T16:11:34.105Z,8.97
2019-04-11T16:14:25.460Z,7.73
2019-04-11T16:17:14.728Z,6.67
2019-04-11T16:19:50.683Z,7.75
2019-04-11T16:22:54.895Z,4.70
2019-04-11T16:25:23.754Z,4.97
2019-04-11T16:28:19.529Z,6.57
2019-04-11T16:30:52.611Z,7.33
2019-04-11T16:33:35.912Z,7.63
2019-04-11T16:36:29.056Z,7.87
2019-04-11T16:39:28.045Z,9.43
2019-04-11T16:42:10.808Z,7.13
2019-04-11T16:45:07.227Z,6.53
2019-04-11T16:48:06.263Z,5.43
2019-04-11T16:50:37.658Z,7.40
2019-04-11T16:53:11.645Z,8.40
2019-04-11T16:55:43.659Z,6.40
2019-04-11T16:58:19.285Z,6.63
2019-04-11T17:00:52.185Z,7.75
2019-04-11T17:03:24.744Z,7.43
2019-04-11T17:05:59.542Z,8.90
2019-04-11T17:08:47.432Z,6.47
2019-04-11T17:11:20.108Z,5.25
2019-04-11T17:13:51.588Z,5.08
2019-04-11T17:16:22.909Z,6.57
2019-04-11T17:18:53.982Z,8.03
2019-04-11T17:21:25.503Z,6.03
2019-04-11T17:23:56.928Z,7.90
2019-04-11T17:26:27.996Z,7.27
2019-04-11T17:28:59.116Z,7.13
2019-04-11T17:31:30.482Z,5.97
2019-04-11T17:34:02.781Z,5.03
2019-04-11T17:36:34.878Z,7.53
2019-04-11T17:39:08.109Z,6.73
2019-04-11T17:41:41.784Z,6.43
2019-04-11T17:44:12.445Z,7.57
2019-04-11T17:46:50.158Z,8.27
2019-04-11T17:49:21.506Z,8.70
2019-04-11T17:51:56.030Z,6.67
2019-04-11T17:54:25.754Z,9.40
2019-04-11T17:56:58.995Z,6.93
2019-04-11T17:59:29.733Z,7.40
2019-04-11T18:02:00.936Z,8.00
2019-04-11T18:04:32.356Z,8.13
2019-04-11T18:07:04.022Z,9.73
2019-04-11T18:09:35.417Z,7.53
2019-04-11T18:12:07.129Z,9.30
2019-04-11T18:14:42.296Z,8.03
2019-04-11T18:17:16.308Z,6.53
2019-04-11T18:19:54.436Z,5.37
2019-04-11T18:22:27.610Z,7.67
2019-04-11T18:24:59.549Z,6.47
2019-04-11T18:27:34.305Z,6.30
2019-04-11T18:30:09.380Z,6.23
2019-04-11T18:32:41.088Z,6.10
2019-04-11T18:35:12.736Z,6.60
2019-04-11T18:37:49.212Z,8.03
2019-04-11T18:40:20.379Z,7.33
2019-04-11T18:42:51.497Z,5.72
2019-04-11T18:45:22.620Z,6.57
2019-04-11T18:47:54.269Z,8.30
2019-04-11T18:50:25.420Z,6.97
2019-04-11T18:52:59.540Z,6.37
2019-04-11T18:55:30.379Z,7.07
2019-04-11T18:58:04.002Z,5.00
2019-04-11T19:00:38.939Z,4.80
2019-04-11T19:03:10.885Z,5.10
2019-04-11T19:05:42.979Z,5.50
2019-04-11T19:08:15.536Z,5.10
2019-04-11T19:10:49.051Z,3.98
2019-04-11T19:13:20.152Z,7.10
2019-04-11T19:15:51.350Z,6.40
2019-04-11T19:18:22.897Z,7.47
2019-04-11T19:20:53.997Z,6.90
2019-04-11T19:23:25.122Z,6.25
2019-04-11T19:25:56.191Z,7.43
2019-04-11T19:28:27.494Z,7.20
2019-04-11T19:30:58.642Z,5.27
2019-04-11T19:33:33.997Z,5.50
2019-04-11T19:36:02.872Z,4.50
2019-04-11T19:38:35.714Z,6.33
2019-04-11T19:41:06.847Z,4.70
2019-04-11T19:43:40.566Z,3.73
2019-04-11T19:46:10.744Z,5.40
2019-04-11T19:48:47.878Z,7.27
2019-04-11T19:51:18.975Z,5.23
2019-04-11T19:53:50.007Z,6.53
2019-04-11T19:56:45.219Z,4.85
2019-04-11T19:59:16.379Z,5.00
2019-04-11T20:01:50.802Z,6.75
2019-04-11T20:04:24.015Z,5.30
2019-04-11T20:06:55.960Z,4.72
2019-04-11T20:09:30.678Z,6.33
2019-04-11T20:12:05.487Z,7.50
2019-04-11T20:14:36.864Z,5.23
2019-04-11T20:17:09.228Z,6.87
2019-04-11T20:19:41.206Z,5.60
2019-04-11T20:22:12.242Z,4.10
2019-04-11T20:24:46.745Z,5.15
2019-04-11T20:27:20.034Z,5.77
2019-04-11T20:29:53.138Z,5.50
2019-04-11T20:32:23.583Z,5.97
2019-04-11T20:34:54.739Z,4.47
2019-04-11T20:37:26.244Z,7.27
2019-04-11T20:39:57.462Z,7.50
2019-04-11T20:42:33.957Z,4.03
2019-04-11T20:45:05.656Z,4.30
2019-04-11T20:47:37.277Z,4.70
2019-04-11T20:50:10.449Z,3.20
2019-04-11T20:52:51.265Z,6.17
2019-04-11T20:55:22.718Z,5.47
2019-04-11T20:57:54.003Z,4.30
2019-04-11T21:00:25.470Z,5.78
2019-04-11T21:02:58.389Z,3.98
2019-04-11T21:05:30.930Z,3.87
2019-04-11T21:08:02.953Z,5.43
2019-04-11T21:10:34.888Z,5.13
2019-04-11T21:13:11.619Z,3.33
2019-04-11T21:15:42.707Z,3.73
2019-04-11T21:18:15.747Z,3.73
2019-04-11T21:20:55.052Z,5.27
2019-04-11T21:23:24.756Z,4.05
2019-04-11T21:25:58.850Z,3.33
2019-04-11T21:28:30.330Z,5.08
2019-04-11T21:31:02.052Z,3.93
2019-04-11T21:33:35.042Z,6.37
2019-04-11T21:36:07.383Z,4.77
2019-04-11T21:38:38.529Z,5.30
2019-04-11T21:41:10.649Z,5.00
2019-04-11T21:43:41.738Z,5.37
2019-04-11T21:46:12.807Z,3.57
2019-04-11T21:48:44.319Z,8.40
2019-04-11T21:51:15.518Z,5.60
2019-04-11T21:53:46.597Z,3.73
2019-04-11T21:56:18.653Z,4.50
2019-04-11T21:58:50.798Z,3.13
2019-04-11T22:01:25.583Z,6.57
2019-04-11T22:03:57.842Z,4.00
2019-04-11T22:06:30.467Z,3.80
2019-04-11T22:09:04.829Z,4.30
2019-04-11T22:11:38.363Z,3.00
2019-04-11T22:14:11.300Z,5.63
2019-04-11T22:16:45.153Z,5.25
2019-04-11T22:19:16.876Z,6.33
2019-04-11T22:21:48.050Z,4.30
2019-04-11T22:24:19.065Z,4.42
2019-04-11T22:26:51.160Z,3.53
2019-04-11T22:29:24.845Z,3.97
2019-04-11T22:31:56.576Z,5.77
2019-04-11T22:34:35.380Z,3.30
2019-04-11T22:37:06.735Z,3.90
2019-04-11T22:39:37.766Z,4.57
2019-04-11T22:42:09.080Z,5.80
2019-04-11T22:44:40.130Z,4.50
2019-04-11T22:47:11.584Z,4.27
2019-04-11T22:49:43.095Z,4.35
2019-04-11T22:52:14.361Z,5.87
2019-04-11T22:54:45.413Z,4.97
2019-04-11T22:57:16.738Z,4.63
2019-04-11T22:59:47.842Z,4.30
2019-04-11T23:02:26.660Z,4.23
2019-04-11T23:04:57.813Z,2.50
2019-04-11T23:07:29.485Z,5.87
2019-04-11T23:10:00.517Z,2.80
2019-04-11T23:12:33.063Z,4.90
2019-04-11T23:15:04.261Z,3.37
2019-04-11T23:17:37.885Z,4.20
2019-04-11T23:20:11.862Z,6.27
2019-04-11T23:22:44.467Z,4.40
2019-04-11T23:25:15.486Z,6.53
2019-04-11T23:27:46.599Z,3.17
2019-04-11T23:30:24.353Z,3.30
2019-04-11T23:32:55.461Z,4.43
2019-04-11T23:35:26.753Z,3.80
2019-04-11T23:37:58.026Z,3.85
2019-04-11T23:40:29.306Z,2.63
2019-04-11T23:43:00.322Z,4.03
2019-04-11T23:45:33.097Z,3.47
2019-04-11T23:48:05.740Z,8.17
2019-04-11T23:50:37.037Z,4.90
2019-04-11T23:53:08.135Z,4.07
2019-04-11T23:55:39.233Z,5.73
2019-04-11T23:58:10.527Z,4.53
